sensor_id;sensor_type;location;lat;lon;timestamp;pressure;altitude;pressure_sealevel;temperature;humidity
67345;BME280;54230;52.402;6.276;2022-09-24T00:00:00;101320.0;;;14.3;86.9
67345;BME280;54230;52.402;6.276;2022-09-24T00:05:00;101320.0;;;14.4;87.0
67345;BME280;54230;52.402;6.276;2022-09-24T00:10:00;101320.0;;;14.3;87.3
67345;BME280;54230;52.402;6.276;2022-09-24T00:15:00;101310.0;;;14.3;87.3
67345;BME280;54230;52.402;6.276;2022-09-24T00:20:00;101310.0;;;14.3;87.4
67345;BME280;54230;52.402;6.276;2022-09-24T00:25:00;101310.0;;;14.2;87.7
67345;BME280;54230;52.402;6.276;2022-09-24T00:30:00;101310.0;;;14.2;87.7
67345;BME280;54230;52.402;6.276;2022-09-24T00:35:00;101310.0;;;14.3;87.6
67345;BME280;54230;52.402;6.276;2022-09-24T00:40:00;101300.0;;;14.2;87.8
67345;BME280;54230;52.402;6.276;2022-09-24T00:45:00;101300.0;;;14.2;88.0
67345;BME280;54230;52.402;6.276;2022-09-24T00:50:13;101300.0;;;14.2;88.4
67345;BME280;54230;52.402;6.276;2022-09-24T00:55:00;101290.0;;;14.1;88.6
67345;BME280;54230;52.402;6.276;2022-09-24T01:00:00;101290.0;;;14.2;88.7
67345;BME280;54230;52.402;6.276;2022-09-24T01:05:00;101290.0;;;14.2;88.9
67345;BME280;54230;52.402;6.276;2022-09-24T01:10:00;101280.0;;;14.2;89.1
67345;BME280;54230;52.402;6.276;2022-09-24T01:15:07;101280.0;;;14.1;89.4
67345;BME280;54230;52.402;6.276;2022-09-24T01:20:16;101270.0;;;14.1;89.5
67345;BME280;54230;52.402;6.276;2022-09-24T01:25:01;101270.0;;;14.1;90.1
67345;BME280;54230;52.402;6.276;2022-09-24T01:30:03;101270.0;;;14.1;90.0
67345;BME280;54230;52.402;6.276;2022-09-24T01:35:05;101260.0;;;14.1;90.2
67345;BME280;54230;52.402;6.276;2022-09-24T01:40:02;101260.0;;;14.1;90.3
67345;BME280;54230;52.402;6.276;2022-09-24T01:45:01;101260.0;;;14.1;90.4
67345;BME280;54230;52.402;6.276;2022-09-24T01:50:01;101250.0;;;14.1;90.5
67345;BME280;54230;52.402;6.276;2022-09-24T01:55:00;101250.0;;;14.1;90.9
67345;BME280;54230;52.402;6.276;2022-09-24T02:00:03;101240.0;;;14.2;90.7
67345;BME280;54230;52.402;6.276;2022-09-24T02:05:04;101240.0;;;14.2;90.7
67345;BME280;54230;52.402;6.276;2022-09-24T02:20:02;101230.0;;;14.2;91.1
67345;BME280;54230;52.402;6.276;2022-09-24T02:25:03;101220.0;;;14.2;91.2
67345;BME280;54230;52.402;6.276;2022-09-24T02:30:00;101210.0;;;14.1;91.2
67345;BME280;54230;52.402;6.276;2022-09-24T03:20:00;101210.0;;;14.0;92.7
67345;BME280;54230;52.402;6.276;2022-09-24T03:25:00;101200.0;;;14.0;93.0
67345;BME280;54230;52.402;6.276;2022-09-24T03:30:00;101200.0;;;13.9;93.4
67345;BME280;54230;52.402;6.276;2022-09-24T03:35:00;101200.0;;;13.9;93.8
67345;BME280;54230;52.402;6.276;2022-09-24T03:40:00;101200.0;;;13.9;94.0
67345;BME280;54230;52.402;6.276;2022-09-24T03:45:00;101190.0;;;13.8;94.5
67345;BME280;54230;52.402;6.276;2022-09-24T03:50:00;101190.0;;;13.9;94.8
67345;BME280;54230;52.402;6.276;2022-09-24T03:55:00;101200.0;;;13.8;95.3
67345;BME280;54230;52.402;6.276;2022-09-24T04:00:00;101190.0;;;13.7;95.5
67345;BME280;54230;52.402;6.276;2022-09-24T04:05:00;101190.0;;;13.8;95.7
67345;BME280;54230;52.402;6.276;2022-09-24T04:10:00;101190.0;;;13.8;95.8
67345;BME280;54230;52.402;6.276;2022-09-24T04:20:00;101190.0;;;13.6;96.4
67345;BME280;54230;52.402;6.276;2022-09-24T04:25:00;101190.0;;;13.6;96.7
67345;BME280;54230;52.402;6.276;2022-09-24T04:30:00;101190.0;;;13.6;96.8
67345;BME280;54230;52.402;6.276;2022-09-24T04:35:00;101180.0;;;13.6;96.9
67345;BME280;54230;52.402;6.276;2022-09-24T04:40:00;101180.0;;;13.5;97.4
67345;BME280;54230;52.402;6.276;2022-09-24T04:45:00;101180.0;;;13.5;97.7
67345;BME280;54230;52.402;6.276;2022-09-24T04:50:00;101190.0;;;13.4;97.8
67345;BME280;54230;52.402;6.276;2022-09-24T04:55:00;101180.0;;;13.4;98.3
67345;BME280;54230;52.402;6.276;2022-09-24T05:00:00;101190.0;;;13.4;98.4
67345;BME280;54230;52.402;6.276;2022-09-24T05:05:00;101190.0;;;13.3;98.2
67345;BME280;54230;52.402;6.276;2022-09-24T05:10:00;101190.0;;;13.3;98.3
67345;BME280;54230;52.402;6.276;2022-09-24T05:15:00;101200.0;;;13.3;98.6
67345;BME280;54230;52.402;6.276;2022-09-24T05:20:00;101200.0;;;13.3;98.4
67345;BME280;54230;52.402;6.276;2022-09-24T05:25:00;101200.0;;;13.3;98.5
67345;BME280;54230;52.402;6.276;2022-09-24T05:30:00;101210.0;;;13.3;98.7
67345;BME280;54230;52.402;6.276;2022-09-24T05:35:00;101200.0;;;13.4;98.4
67345;BME280;54230;52.402;6.276;2022-09-24T05:40:00;101210.0;;;13.4;98.2
67345;BME280;54230;52.402;6.276;2022-09-24T05:45:00;101210.0;;;13.4;98.6
67345;BME280;54230;52.402;6.276;2022-09-24T05:50:00;101210.0;;;13.5;98.2
67345;BME280;54230;52.402;6.276;2022-09-24T05:55:00;101220.0;;;13.5;98.0
67345;BME280;54230;52.402;6.276;2022-09-24T06:00:00;101210.0;;;13.4;97.8
67345;BME280;54230;52.402;6.276;2022-09-24T06:05:00;101220.0;;;13.5;97.6
67345;BME280;54230;52.402;6.276;2022-09-24T06:10:00;101220.0;;;13.5;97.9
67345;BME280;54230;52.402;6.276;2022-09-24T06:15:00;101220.0;;;13.6;97.9
67345;BME280;54230;52.402;6.276;2022-09-24T06:20:00;101220.0;;;13.6;98.1
67345;BME280;54230;52.402;6.276;2022-09-24T06:25:00;101220.0;;;13.6;98.2
67345;BME280;54230;52.402;6.276;2022-09-24T06:30:00;101230.0;;;13.6;98.2
67345;BME280;54230;52.402;6.276;2022-09-24T06:35:00;101230.0;;;13.6;97.9
67345;BME280;54230;52.402;6.276;2022-09-24T06:40:00;101230.0;;;13.7;98.0
67345;BME280;54230;52.402;6.276;2022-09-24T06:45:00;101230.0;;;13.7;97.8
67345;BME280;54230;52.402;6.276;2022-09-24T06:50:00;101240.0;;;13.7;97.6
67345;BME280;54230;52.402;6.276;2022-09-24T06:55:00;101240.0;;;13.7;97.8
67345;BME280;54230;52.402;6.276;2022-09-24T07:00:00;101240.0;;;13.8;97.7
67345;BME280;54230;52.402;6.276;2022-09-24T07:05:00;101240.0;;;13.8;97.4
67345;BME280;54230;52.402;6.276;2022-09-24T07:10:02;101240.0;;;13.9;97.0
67345;BME280;54230;52.402;6.276;2022-09-24T07:15:00;101250.0;;;13.9;96.6
67345;BME280;54230;52.402;6.276;2022-09-24T07:20:00;101250.0;;;13.9;96.3
67345;BME280;54230;52.402;6.276;2022-09-24T07:25:00;101260.0;;;13.9;96.4
67345;BME280;54230;52.402;6.276;2022-09-24T07:30:00;101260.0;;;14.0;96.0
67345;BME280;54230;52.402;6.276;2022-09-24T07:35:00;101260.0;;;14.0;95.3
67345;BME280;54230;52.402;6.276;2022-09-24T07:40:00;101270.0;;;14.0;95.0
67345;BME280;54230;52.402;6.276;2022-09-24T07:45:00;101270.0;;;14.2;94.9
67345;BME280;54230;52.402;6.276;2022-09-24T07:50:00;101270.0;;;14.2;93.8
67345;BME280;54230;52.402;6.276;2022-09-24T07:55:00;101280.0;;;14.3;93.6
67345;BME280;54230;52.402;6.276;2022-09-24T08:00:00;101290.0;;;14.2;93.6
67345;BME280;54230;52.402;6.276;2022-09-24T08:05:00;101290.0;;;14.2;93.1
67345;BME280;54230;52.402;6.276;2022-09-24T08:10:00;101290.0;;;14.2;93.2
67345;BME280;54230;52.402;6.276;2022-09-24T08:15:00;101290.0;;;14.2;92.7
67345;BME280;54230;52.402;6.276;2022-09-24T08:20:00;101290.0;;;14.2;91.9
67345;BME280;54230;52.402;6.276;2022-09-24T08:25:00;101300.0;;;14.3;91.7
67345;BME280;54230;52.402;6.276;2022-09-24T08:30:00;101300.0;;;14.4;91.1
67345;BME280;54230;52.402;6.276;2022-09-24T08:35:00;101300.0;;;14.4;91.5
67345;BME280;54230;52.402;6.276;2022-09-24T08:40:00;101260.0;;;14.1;91.1
67345;BME280;54230;52.402;6.276;2022-09-24T08:45:00;101310.0;;;14.5;91.1
67345;BME280;54230;52.402;6.276;2022-09-24T08:50:07;101320.0;;;14.6;90.8
67345;BME280;54230;52.402;6.276;2022-09-24T08:55:04;101320.0;;;14.7;90.7
67345;BME280;54230;52.402;6.276;2022-09-24T09:00:00;101320.0;;;14.7;90.2
67345;BME280;54230;52.402;6.276;2022-09-24T09:05:03;101330.0;;;14.6;90.4
67345;BME280;54230;52.402;6.276;2022-09-24T09:10:02;101330.0;;;14.6;90.7
67345;BME280;54230;52.402;6.276;2022-09-24T09:15:02;101330.0;;;14.6;90.7
67345;BME280;54230;52.402;6.276;2022-09-24T09:20:03;101330.0;;;14.7;90.3
67345;BME280;54230;52.402;6.276;2022-09-24T09:25:08;101340.0;;;14.8;89.9
67345;BME280;54230;52.402;6.276;2022-09-24T09:30:03;101340.0;;;14.9;89.9
67345;BME280;54230;52.402;6.276;2022-09-24T09:35:05;101350.0;;;14.8;89.6
67345;BME280;54230;52.402;6.276;2022-09-24T09:40:08;101350.0;;;14.9;89.5
67345;BME280;54230;52.402;6.276;2022-09-24T09:45:01;101350.0;;;14.8;90.3
67345;BME280;54230;52.402;6.276;2022-09-24T09:50:04;101350.0;;;14.8;90.4
67345;BME280;54230;52.402;6.276;2022-09-24T09:55:00;101350.0;;;14.8;90.7
67345;BME280;54230;52.402;6.276;2022-09-24T10:00:00;101350.0;;;14.9;90.4
67345;BME280;54230;52.402;6.276;2022-09-24T10:05:01;101360.0;;;14.9;90.5
67345;BME280;54230;52.402;6.276;2022-09-24T10:10:02;101360.0;;;15.1;88.9
67345;BME280;54230;52.402;6.276;2022-09-24T10:15:02;101360.0;;;15.1;87.8
67345;BME280;54230;52.402;6.276;2022-09-24T10:20:01;101360.0;;;15.3;87.0
67345;BME280;54230;52.402;6.276;2022-09-24T10:25:00;101360.0;;;15.4;87.5
67345;BME280;54230;52.402;6.276;2022-09-24T10:30:01;101350.0;;;15.5;86.8
67345;BME280;54230;52.402;6.276;2022-09-24T10:35:02;101340.0;;;15.7;86.3
67345;BME280;54230;52.402;6.276;2022-09-24T10:40:10;101350.0;;;15.9;85.8
67345;BME280;54230;52.402;6.276;2022-09-24T10:45:00;101340.0;;;16.0;85.7
67345;BME280;54230;52.402;6.276;2022-09-24T10:50:15;101330.0;;;16.1;83.8
67345;BME280;54230;52.402;6.276;2022-09-24T10:55:09;101350.0;;;16.1;84.6
67345;BME280;54230;52.402;6.276;2022-09-24T11:00:07;101350.0;;;16.1;84.4
67345;BME280;54230;52.402;6.276;2022-09-24T11:05:02;101350.0;;;15.9;84.0
67345;BME280;54230;52.402;6.276;2022-09-24T11:10:08;101360.0;;;15.8;84.4
67345;BME280;54230;52.402;6.276;2022-09-24T11:15:08;101360.0;;;15.7;85.5
67345;BME280;54230;52.402;6.276;2022-09-24T11:20:08;101360.0;;;15.6;85.4
67345;BME280;54230;52.402;6.276;2022-09-24T11:25:14;101370.0;;;15.6;87.4
67345;BME280;54230;52.402;6.276;2022-09-24T11:30:07;101370.0;;;15.5;88.1
67345;BME280;54230;52.402;6.276;2022-09-24T11:35:14;101350.0;;;15.4;88.9
67345;BME280;54230;52.402;6.276;2022-09-24T11:40:09;101370.0;;;15.4;90.1
67345;BME280;54230;52.402;6.276;2022-09-24T11:45:12;101370.0;;;15.4;90.7
67345;BME280;54230;52.402;6.276;2022-09-24T11:50:14;101370.0;;;15.3;91.1
67345;BME280;54230;52.402;6.276;2022-09-24T11:55:03;101370.0;;;15.3;90.2
67345;BME280;54230;52.402;6.276;2022-09-24T12:00:02;101360.0;;;15.1;90.5
67345;BME280;54230;52.402;6.276;2022-09-24T12:05:02;101370.0;;;15.2;90.7
67345;BME280;54230;52.402;6.276;2022-09-24T12:10:03;101370.0;;;15.3;91.1
67345;BME280;54230;52.402;6.276;2022-09-24T12:15:04;101370.0;;;15.3;91.4
67345;BME280;54230;52.402;6.276;2022-09-24T12:20:03;101370.0;;;15.3;91.7
67345;BME280;54230;52.402;6.276;2022-09-24T12:25:00;101360.0;;;15.4;92.0
67345;BME280;54230;52.402;6.276;2022-09-24T12:30:05;101370.0;;;15.4;91.8
67345;BME280;54230;52.402;6.276;2022-09-24T12:35:07;101370.0;;;15.5;91.5
67345;BME280;54230;52.402;6.276;2022-09-24T12:40:03;101370.0;;;15.7;90.7
67345;BME280;54230;52.402;6.276;2022-09-24T12:45:00;101370.0;;;15.7;90.2
67345;BME280;54230;52.402;6.276;2022-09-24T12:50:03;101370.0;;;15.7;90.2
67345;BME280;54230;52.402;6.276;2022-09-24T12:55:02;101370.0;;;15.7;90.2
67345;BME280;54230;52.402;6.276;2022-09-24T13:00:03;101370.0;;;15.6;90.8
67345;BME280;54230;52.402;6.276;2022-09-24T13:05:14;101370.0;;;15.6;90.9
67345;BME280;54230;52.402;6.276;2022-09-24T13:10:15;101370.0;;;15.6;90.2
67345;BME280;54230;52.402;6.276;2022-09-24T13:15:03;101370.0;;;15.7;89.4
67345;BME280;54230;52.402;6.276;2022-09-24T13:20:04;101370.0;;;15.8;89.4
67345;BME280;54230;52.402;6.276;2022-09-24T13:25:19;101360.0;;;15.8;88.1
67345;BME280;54230;52.402;6.276;2022-09-24T13:30:13;101350.0;;;15.8;88.0
67345;BME280;54230;52.402;6.276;2022-09-24T13:35:05;101350.0;;;15.8;88.2
67345;BME280;54230;52.402;6.276;2022-09-24T13:40:02;101370.0;;;15.8;85.2
67345;BME280;54230;52.402;6.276;2022-09-24T13:45:01;101370.0;;;15.8;86.3
67345;BME280;54230;52.402;6.276;2022-09-24T13:50:06;101370.0;;;15.6;85.9
67345;BME280;54230;52.402;6.276;2022-09-24T13:55:02;101380.0;;;15.5;85.0
67345;BME280;54230;52.402;6.276;2022-09-24T14:00:02;101390.0;;;15.6;86.2
67345;BME280;54230;52.402;6.276;2022-09-24T14:05:00;101390.0;;;15.8;84.0
67345;BME280;54230;52.402;6.276;2022-09-24T14:10:02;101390.0;;;16.0;83.2
67345;BME280;54230;52.402;6.276;2022-09-24T14:15:08;101390.0;;;15.8;82.1
67345;BME280;54230;52.402;6.276;2022-09-24T14:20:00;101390.0;;;16.0;82.6
67345;BME280;54230;52.402;6.276;2022-09-24T14:25:02;101390.0;;;16.2;81.8
67345;BME280;54230;52.402;6.276;2022-09-24T14:30:03;101390.0;;;16.1;81.6
67345;BME280;54230;52.402;6.276;2022-09-24T14:35:03;101390.0;;;15.9;82.1
67345;BME280;54230;52.402;6.276;2022-09-24T14:40:04;101390.0;;;15.8;82.5
67345;BME280;54230;52.402;6.276;2022-09-24T14:45:01;101400.0;;;15.8;82.7
67345;BME280;54230;52.402;6.276;2022-09-24T14:50:00;101390.0;;;15.8;83.2
67345;BME280;54230;52.402;6.276;2022-09-24T14:55:09;101400.0;;;15.6;83.3
67345;BME280;54230;52.402;6.276;2022-09-24T15:00:00;101400.0;;;15.5;83.6
67345;BME280;54230;52.402;6.276;2022-09-24T15:05:02;101400.0;;;15.5;83.8
67345;BME280;54230;52.402;6.276;2022-09-24T15:10:02;101400.0;;;15.5;84.3
67345;BME280;54230;52.402;6.276;2022-09-24T15:15:02;101400.0;;;15.2;86.0
67345;BME280;54230;52.402;6.276;2022-09-24T15:20:01;101400.0;;;14.8;88.8
67345;BME280;54230;52.402;6.276;2022-09-24T15:25:00;101410.0;;;14.6;90.8
67345;BME280;54230;52.402;6.276;2022-09-24T15:30:02;101410.0;;;14.5;90.6
67345;BME280;54230;52.402;6.276;2022-09-24T15:35:00;101410.0;;;14.2;92.1
67345;BME280;54230;52.402;6.276;2022-09-24T15:40:05;101420.0;;;14.5;92.1
67345;BME280;54230;52.402;6.276;2022-09-24T15:45:00;101410.0;;;14.6;91.2
67345;BME280;54230;52.402;6.276;2022-09-24T15:50:00;101410.0;;;14.6;90.0
67345;BME280;54230;52.402;6.276;2022-09-24T15:55:01;101420.0;;;14.7;89.5
67345;BME280;54230;52.402;6.276;2022-09-24T16:00:00;101420.0;;;14.8;88.6
67345;BME280;54230;52.402;6.276;2022-09-24T16:05:00;101420.0;;;14.7;87.7
67345;BME280;54230;52.402;6.276;2022-09-24T16:10:00;101430.0;;;14.5;86.8
67345;BME280;54230;52.402;6.276;2022-09-24T16:15:00;101440.0;;;14.5;87.5
67345;BME280;54230;52.402;6.276;2022-09-24T16:20:00;101440.0;;;14.4;87.2
67345;BME280;54230;52.402;6.276;2022-09-24T16:25:00;101450.0;;;14.4;87.3
67345;BME280;54230;52.402;6.276;2022-09-24T16:30:00;101450.0;;;14.4;87.7
67345;BME280;54230;52.402;6.276;2022-09-24T16:35:00;101450.0;;;14.4;88.1
67345;BME280;54230;52.402;6.276;2022-09-24T16:40:00;101450.0;;;14.4;87.7
67345;BME280;54230;52.402;6.276;2022-09-24T16:45:00;101440.0;;;14.3;87.4
67345;BME280;54230;52.402;6.276;2022-09-24T16:50:00;101460.0;;;14.3;86.8
67345;BME280;54230;52.402;6.276;2022-09-24T16:55:00;101460.0;;;14.3;86.6
67345;BME280;54230;52.402;6.276;2022-09-24T17:00:00;101460.0;;;14.2;86.1
67345;BME280;54230;52.402;6.276;2022-09-24T17:05:00;101460.0;;;14.1;85.4
67345;BME280;54230;52.402;6.276;2022-09-24T17:10:00;101470.0;;;14.0;85.5
67345;BME280;54230;52.402;6.276;2022-09-24T17:15:00;101460.0;;;13.8;85.0
67345;BME280;54230;52.402;6.276;2022-09-24T17:20:00;101490.0;;;13.8;84.5
67345;BME280;54230;52.402;6.276;2022-09-24T17:25:00;101490.0;;;13.7;84.1
67345;BME280;54230;52.402;6.276;2022-09-24T17:30:00;101490.0;;;13.6;84.0
67345;BME280;54230;52.402;6.276;2022-09-24T17:35:00;101500.0;;;13.6;84.3
67345;BME280;54230;52.402;6.276;2022-09-24T17:40:00;101500.0;;;13.6;84.5
67345;BME280;54230;52.402;6.276;2022-09-24T17:45:00;101480.0;;;13.5;84.5
67345;BME280;54230;52.402;6.276;2022-09-24T17:50:00;101500.0;;;13.6;85.2
67345;BME280;54230;52.402;6.276;2022-09-24T17:55:00;101500.0;;;13.5;86.0
67345;BME280;54230;52.402;6.276;2022-09-24T18:00:00;101510.0;;;13.6;85.9
67345;BME280;54230;52.402;6.276;2022-09-24T18:05:00;101510.0;;;13.5;87.0
67345;BME280;54230;52.402;6.276;2022-09-24T18:10:00;101520.0;;;13.5;87.2
67345;BME280;54230;52.402;6.276;2022-09-24T18:15:00;101520.0;;;13.5;87.3
67345;BME280;54230;52.402;6.276;2022-09-24T18:20:00;101520.0;;;13.4;87.5
67345;BME280;54230;52.402;6.276;2022-09-24T18:25:00;101530.0;;;13.4;88.3
67345;BME280;54230;52.402;6.276;2022-09-24T18:30:00;101540.0;;;13.4;88.4
67345;BME280;54230;52.402;6.276;2022-09-24T18:35:00;101540.0;;;13.4;88.8
67345;BME280;54230;52.402;6.276;2022-09-24T18:40:00;101540.0;;;13.4;89.1
67345;BME280;54230;52.402;6.276;2022-09-24T18:45:00;101540.0;;;13.4;88.8
67345;BME280;54230;52.402;6.276;2022-09-24T18:50:00;101540.0;;;13.4;89.4
67345;BME280;54230;52.402;6.276;2022-09-24T18:55:00;101540.0;;;13.5;89.4
67345;BME280;54230;52.402;6.276;2022-09-24T19:00:00;101540.0;;;13.4;89.4
67345;BME280;54230;52.402;6.276;2022-09-24T19:05:00;101540.0;;;13.4;89.5
67345;BME280;54230;52.402;6.276;2022-09-24T19:10:00;101540.0;;;13.3;90.0
67345;BME280;54230;52.402;6.276;2022-09-24T19:15:00;101540.0;;;13.2;90.4
67345;BME280;54230;52.402;6.276;2022-09-24T19:20:00;101550.0;;;13.2;90.7
67345;BME280;54230;52.402;6.276;2022-09-24T19:25:00;101550.0;;;13.2;90.5
67345;BME280;54230;52.402;6.276;2022-09-24T19:30:00;101550.0;;;13.2;90.5
67345;BME280;54230;52.402;6.276;2022-09-24T19:35:00;101540.0;;;13.1;90.4
67345;BME280;54230;52.402;6.276;2022-09-24T19:40:00;101560.0;;;13.2;89.9
67345;BME280;54230;52.402;6.276;2022-09-24T19:45:00;101560.0;;;13.3;89.6
67345;BME280;54230;52.402;6.276;2022-09-24T19:50:00;101560.0;;;13.2;89.5
67345;BME280;54230;52.402;6.276;2022-09-24T19:55:00;101560.0;;;13.3;89.4
67345;BME280;54230;52.402;6.276;2022-09-24T20:00:00;101560.0;;;13.3;89.1
67345;BME280;54230;52.402;6.276;2022-09-24T20:05:00;101560.0;;;13.2;88.7
67345;BME280;54230;52.402;6.276;2022-09-24T20:10:00;101560.0;;;13.2;88.3
67345;BME280;54230;52.402;6.276;2022-09-24T20:15:00;101560.0;;;13.2;87.3
67345;BME280;54230;52.402;6.276;2022-09-24T20:20:00;101560.0;;;13.1;85.8
67345;BME280;54230;52.402;6.276;2022-09-24T20:25:00;101560.0;;;13.1;85.2
67345;BME280;54230;52.402;6.276;2022-09-24T20:30:00;101570.0;;;13.0;84.1
67345;BME280;54230;52.402;6.276;2022-09-24T20:35:00;101570.0;;;12.9;83.8
67345;BME280;54230;52.402;6.276;2022-09-24T20:40:00;101570.0;;;12.9;83.3
67345;BME280;54230;52.402;6.276;2022-09-24T20:45:00;101580.0;;;12.8;83.5
67345;BME280;54230;52.402;6.276;2022-09-24T20:50:00;101560.0;;;12.6;83.4
67345;BME280;54230;52.402;6.276;2022-09-24T20:55:00;101580.0;;;12.8;83.4
67345;BME280;54230;52.402;6.276;2022-09-24T21:00:00;101580.0;;;12.7;82.6
67345;BME280;54230;52.402;6.276;2022-09-24T21:10:00;101580.0;;;12.6;82.6
67345;BME280;54230;52.402;6.276;2022-09-24T21:15:00;101590.0;;;12.6;82.7
67345;BME280;54230;52.402;6.276;2022-09-24T21:20:00;101590.0;;;12.5;82.8
67345;BME280;54230;52.402;6.276;2022-09-24T21:25:00;101590.0;;;12.5;83.2
67345;BME280;54230;52.402;6.276;2022-09-24T21:30:00;101590.0;;;12.4;83.2
67345;BME280;54230;52.402;6.276;2022-09-24T21:35:00;101590.0;;;12.4;83.4
67345;BME280;54230;52.402;6.276;2022-09-24T21:40:00;101600.0;;;12.4;83.7
67345;BME280;54230;52.402;6.276;2022-09-24T21:45:00;101600.0;;;12.3;83.8
67345;BME280;54230;52.402;6.276;2022-09-24T21:50:00;101600.0;;;12.2;83.8
67345;BME280;54230;52.402;6.276;2022-09-24T21:55:00;101590.0;;;12.0;84.1
67345;BME280;54230;52.402;6.276;2022-09-24T22:00:00;101600.0;;;12.0;84.4
67345;BME280;54230;52.402;6.276;2022-09-24T22:05:00;101600.0;;;11.9;84.8
67345;BME280;54230;52.402;6.276;2022-09-24T22:10:00;101600.0;;;11.7;85.4
67345;BME280;54230;52.402;6.276;2022-09-24T22:15:00;101600.0;;;11.6;85.7
67345;BME280;54230;52.402;6.276;2022-09-24T22:20:00;101600.0;;;11.4;86.2
67345;BME280;54230;52.402;6.276;2022-09-24T22:25:00;101600.0;;;11.3;86.4
67345;BME280;54230;52.402;6.276;2022-09-24T22:30:00;101600.0;;;11.2;87.0
67345;BME280;54230;52.402;6.276;2022-09-24T22:35:00;101600.0;;;11.1;87.4
67345;BME280;54230;52.402;6.276;2022-09-24T22:40:00;101610.0;;;11.0;87.5
67345;BME280;54230;52.402;6.276;2022-09-24T22:45:00;101610.0;;;10.9;87.5
67345;BME280;54230;52.402;6.276;2022-09-24T22:50:00;101610.0;;;10.9;87.9
67345;BME280;54230;52.402;6.276;2022-09-24T22:55:00;101610.0;;;10.8;88.1
67345;BME280;54230;52.402;6.276;2022-09-24T23:00:00;101610.0;;;10.7;88.4
67345;BME280;54230;52.402;6.276;2022-09-24T23:05:00;101610.0;;;10.6;88.5
67345;BME280;54230;52.402;6.276;2022-09-24T23:10:00;101610.0;;;10.6;88.7
67345;BME280;54230;52.402;6.276;2022-09-24T23:15:00;101610.0;;;10.5;89.1
67345;BME280;54230;52.402;6.276;2022-09-24T23:20:00;101600.0;;;10.4;89.3
67345;BME280;54230;52.402;6.276;2022-09-24T23:25:00;101600.0;;;10.3;89.5
67345;BME280;54230;52.402;6.276;2022-09-24T23:30:00;101600.0;;;10.3;89.6
67345;BME280;54230;52.402;6.276;2022-09-24T23:35:00;101590.0;;;10.3;89.8
67345;BME280;54230;52.402;6.276;2022-09-24T23:40:00;101590.0;;;10.2;90.2
67345;BME280;54230;52.402;6.276;2022-09-24T23:45:00;101590.0;;;10.2;90.3
67345;BME280;54230;52.402;6.276;2022-09-24T23:50:00;101590.0;;;10.1;90.7
67345;BME280;54230;52.402;6.276;2022-09-24T23:55:00;101590.0;;;10.1;90.6
